sensor_id;sensor_type;location;lat;lon;timestamp;P1;durP1;ratioP1;P2;durP2;ratioP2
20344;SDS011;10330;48.816;9.278;2023-06-22T07:06:30;11.98;;;4.80;;
20344;SDS011;10330;48.816;9.278;2023-06-22T07:08:59;10.45;;;5.25;;
20344;SDS011;10330;48.816;9.278;2023-06-22T07:11:25;5.28;;;4.32;;
20344;SDS011;10330;48.816;9.278;2023-06-22T07:13:52;6.75;;;4.45;;
20344;SDS011;10330;48.816;9.278;2023-06-22T07:16:18;10.40;;;4.78;;
20344;SDS011;10330;48.816;9.278;2023-06-22T07:18:44;17.23;;;5.28;;
20344;SDS011;10330;48.816;9.278;2023-06-22T07:21:10;8.02;;;4.38;;
20344;SDS011;10330;48.816;9.278;2023-06-22T07:23:36;10.18;;;4.68;;
20344;SDS011;10330;48.816;9.278;2023-06-22T07:26:03;8.15;;;4.32;;
20344;SDS011;10330;48.816;9.278;2023-06-22T07:28:31;7.43;;;4.18;;
20344;SDS011;10330;48.816;9.278;2023-06-22T07:31:02;12.93;;;4.82;;
20344;SDS011;10330;48.816;9.278;2023-06-22T07:33:29;10.07;;;4.35;;
20344;SDS011;10330;48.816;9.278;2023-06-22T07:35:56;5.65;;;4.50;;
20344;SDS011;10330;48.816;9.278;2023-06-22T07:38:22;6.25;;;4.47;;
20344;SDS011;10330;48.816;9.278;2023-06-22T07:40:48;14.23;;;5.28;;
20344;SDS011;10330;48.816;9.278;2023-06-22T07:43:14;6.20;;;4.25;;
20344;SDS011;10330;48.816;9.278;2023-06-22T07:45:40;5.25;;;3.65;;
20344;SDS011;10330;48.816;9.278;2023-06-22T07:48:20;6.07;;;4.38;;
20344;SDS011;10330;48.816;9.278;2023-06-22T07:50:47;7.80;;;3.80;;
20344;SDS011;10330;48.816;9.278;2023-06-22T07:53:13;10.60;;;4.57;;
20344;SDS011;10330;48.816;9.278;2023-06-22T07:55:40;7.95;;;4.00;;
20344;SDS011;10330;48.816;9.278;2023-06-22T07:58:06;10.25;;;4.15;;
20344;SDS011;10330;48.816;9.278;2023-06-22T08:00:33;7.50;;;4.30;;
20344;SDS011;10330;48.816;9.278;2023-06-22T08:02:59;11.23;;;4.18;;
20344;SDS011;10330;48.816;9.278;2023-06-22T08:05:30;7.93;;;3.97;;
20344;SDS011;10330;48.816;9.278;2023-06-22T08:07:57;5.10;;;3.97;;
20344;SDS011;10330;48.816;9.278;2023-06-22T08:10:23;7.25;;;4.18;;
20344;SDS011;10330;48.816;9.278;2023-06-22T08:12:50;11.52;;;3.65;;
20344;SDS011;10330;48.816;9.278;2023-06-22T08:15:17;9.63;;;4.47;;
20344;SDS011;10330;48.816;9.278;2023-06-22T08:17:44;5.32;;;3.50;;
20344;SDS011;10330;48.816;9.278;2023-06-22T08:20:11;4.07;;;3.65;;
20344;SDS011;10330;48.816;9.278;2023-06-22T08:22:38;11.65;;;4.15;;
20344;SDS011;10330;48.816;9.278;2023-06-22T08:25:08;5.25;;;4.03;;
20344;SDS011;10330;48.816;9.278;2023-06-22T08:27:35;7.95;;;3.88;;
20344;SDS011;10330;48.816;9.278;2023-06-22T08:30:02;7.35;;;4.00;;
20344;SDS011;10330;48.816;9.278;2023-06-22T08:32:28;12.60;;;4.68;;
20344;SDS011;10330;48.816;9.278;2023-06-22T08:34:55;9.15;;;4.82;;
20344;SDS011;10330;48.816;9.278;2023-06-22T08:37:22;7.15;;;4.13;;
20344;SDS011;10330;48.816;9.278;2023-06-22T08:39:56;9.38;;;4.25;;
20344;SDS011;10330;48.816;9.278;2023-06-22T08:42:24;11.52;;;3.80;;
20344;SDS011;10330;48.816;9.278;2023-06-22T08:44:51;8.02;;;3.65;;
20344;SDS011;10330;48.816;9.278;2023-06-22T08:47:17;6.43;;;3.80;;
20344;SDS011;10330;48.816;9.278;2023-06-22T08:49:43;5.70;;;3.67;;
20344;SDS011;10330;48.816;9.278;2023-06-22T08:52:09;9.88;;;4.40;;
20344;SDS011;10330;48.816;9.278;2023-06-22T08:54:35;5.60;;;4.00;;
20344;SDS011;10330;48.816;9.278;2023-06-22T08:57:02;11.13;;;4.60;;
20344;SDS011;10330;48.816;9.278;2023-06-22T08:59:28;9.73;;;4.93;;
20344;SDS011;10330;48.816;9.278;2023-06-22T09:01:54;6.53;;;4.35;;
20344;SDS011;10330;48.816;9.278;2023-06-22T09:04:20;9.77;;;3.83;;
20344;SDS011;10330;48.816;9.278;2023-06-22T09:06:49;8.43;;;4.00;;
20344;SDS011;10330;48.816;9.278;2023-06-22T09:09:17;16.98;;;3.95;;
20344;SDS011;10330;48.816;9.278;2023-06-22T09:11:44;9.60;;;4.35;;
20344;SDS011;10330;48.816;9.278;2023-06-22T09:14:10;9.23;;;4.22;;
20344;SDS011;10330;48.816;9.278;2023-06-22T09:16:37;8.13;;;5.32;;
20344;SDS011;10330;48.816;9.278;2023-06-22T09:19:03;15.40;;;4.30;;
20344;SDS011;10330;48.816;9.278;2023-06-22T09:21:29;10.15;;;4.15;;
20344;SDS011;10330;48.816;9.278;2023-06-22T09:23:55;8.90;;;4.05;;
20344;SDS011;10330;48.816;9.278;2023-06-22T09:26:22;8.38;;;3.80;;
20344;SDS011;10330;48.816;9.278;2023-06-22T09:28:49;8.43;;;3.95;;
20344;SDS011;10330;48.816;9.278;2023-06-22T09:31:15;17.15;;;5.05;;
20344;SDS011;10330;48.816;9.278;2023-06-22T09:33:42;8.80;;;4.38;;
20344;SDS011;10330;48.816;9.278;2023-06-22T09:36:08;7.95;;;4.22;;
20344;SDS011;10330;48.816;9.278;2023-06-22T09:38:35;7.20;;;4.43;;
20344;SDS011;10330;48.816;9.278;2023-06-22T09:41:01;7.72;;;4.25;;
20344;SDS011;10330;48.816;9.278;2023-06-22T09:43:28;5.28;;;4.45;;
20344;SDS011;10330;48.816;9.278;2023-06-22T09:45:55;8.43;;;4.80;;
20344;SDS011;10330;48.816;9.278;2023-06-22T09:48:22;10.55;;;5.00;;
20344;SDS011;10330;48.816;9.278;2023-06-22T09:50:48;16.10;;;4.55;;
20344;SDS011;10330;48.816;9.278;2023-06-22T09:53:14;7.22;;;4.45;;
20344;SDS011;10330;48.816;9.278;2023-06-22T09:55:40;13.18;;;4.05;;
20344;SDS011;10330;48.816;9.278;2023-06-22T09:58:06;11.93;;;4.38;;
20344;SDS011;10330;48.816;9.278;2023-06-22T10:00:34;11.80;;;4.18;;
20344;SDS011;10330;48.816;9.278;2023-06-22T10:03:00;8.68;;;4.75;;
20344;SDS011;10330;48.816;9.278;2023-06-22T10:05:26;10.82;;;4.50;;
20344;SDS011;10330;48.816;9.278;2023-06-22T10:07:52;9.60;;;4.30;;
20344;SDS011;10330;48.816;9.278;2023-06-22T10:10:18;8.82;;;3.97;;
20344;SDS011;10330;48.816;9.278;2023-06-22T10:12:45;10.60;;;4.80;;
20344;SDS011;10330;48.816;9.278;2023-06-22T10:15:20;12.27;;;4.60;;
20344;SDS011;10330;48.816;9.278;2023-06-22T10:17:47;11.75;;;5.40;;
20344;SDS011;10330;48.816;9.278;2023-06-22T10:20:13;11.15;;;4.50;;
20344;SDS011;10330;48.816;9.278;2023-06-22T10:22:44;10.85;;;4.47;;
20344;SDS011;10330;48.816;9.278;2023-06-22T10:25:11;15.55;;;4.68;;
20344;SDS011;10330;48.816;9.278;2023-06-22T10:27:38;14.82;;;4.43;;
20344;SDS011;10330;48.816;9.278;2023-06-22T10:30:09;16.15;;;4.38;;
20344;SDS011;10330;48.816;9.278;2023-06-22T10:32:38;15.38;;;4.50;;
20344;SDS011;10330;48.816;9.278;2023-06-22T10:35:05;12.80;;;4.57;;
20344;SDS011;10330;48.816;9.278;2023-06-22T10:37:31;16.23;;;5.30;;
20344;SDS011;10330;48.816;9.278;2023-06-22T10:39:57;10.35;;;4.03;;
20344;SDS011;10330;48.816;9.278;2023-06-22T10:42:24;9.75;;;4.03;;
20344;SDS011;10330;48.816;9.278;2023-06-22T10:44:50;9.02;;;5.18;;
20344;SDS011;10330;48.816;9.278;2023-06-22T10:47:16;6.78;;;4.18;;
20344;SDS011;10330;48.816;9.278;2023-06-22T10:49:42;14.38;;;4.68;;
20344;SDS011;10330;48.816;9.278;2023-06-22T10:52:09;10.38;;;4.13;;
20344;SDS011;10330;48.816;9.278;2023-06-22T10:54:35;13.40;;;4.35;;
20344;SDS011;10330;48.816;9.278;2023-06-22T11:00:50;11.90;;;4.63;;
20344;SDS011;10330;48.816;9.278;2023-06-22T11:03:16;11.05;;;3.85;;
20344;SDS011;10330;48.816;9.278;2023-06-22T11:05:42;13.35;;;4.88;;
20344;SDS011;10330;48.816;9.278;2023-06-22T11:08:11;16.30;;;5.32;;
20344;SDS011;10330;48.816;9.278;2023-06-22T11:10:37;12.60;;;4.95;;
20344;SDS011;10330;48.816;9.278;2023-06-22T11:13:03;9.77;;;5.88;;
20344;SDS011;10330;48.816;9.278;2023-06-22T11:15:31;9.77;;;4.38;;
20344;SDS011;10330;48.816;9.278;2023-06-22T11:17:57;18.23;;;4.82;;
20344;SDS011;10330;48.816;9.278;2023-06-22T11:20:23;13.75;;;4.43;;
20344;SDS011;10330;48.816;9.278;2023-06-22T11:22:49;11.80;;;4.60;;
20344;SDS011;10330;48.816;9.278;2023-06-22T11:25:15;9.95;;;4.32;;
20344;SDS011;10330;48.816;9.278;2023-06-22T11:27:41;13.32;;;4.63;;
20344;SDS011;10330;48.816;9.278;2023-06-22T11:30:08;9.25;;;4.68;;
20344;SDS011;10330;48.816;9.278;2023-06-22T11:32:34;9.57;;;4.30;;
20344;SDS011;10330;48.816;9.278;2023-06-22T11:35:01;16.05;;;4.35;;
20344;SDS011;10330;48.816;9.278;2023-06-22T11:37:27;19.92;;;5.60;;
20344;SDS011;10330;48.816;9.278;2023-06-22T11:39:53;18.70;;;5.60;;
20344;SDS011;10330;48.816;9.278;2023-06-22T11:42:20;12.70;;;4.78;;
20344;SDS011;10330;48.816;9.278;2023-06-22T11:44:49;10.05;;;4.03;;
20344;SDS011;10330;48.816;9.278;2023-06-22T11:47:15;6.93;;;4.55;;
20344;SDS011;10330;48.816;9.278;2023-06-22T11:49:41;13.68;;;4.20;;
20344;SDS011;10330;48.816;9.278;2023-06-22T11:52:07;7.28;;;4.15;;
20344;SDS011;10330;48.816;9.278;2023-06-22T11:54:33;15.52;;;4.25;;
20344;SDS011;10330;48.816;9.278;2023-06-22T11:57:00;13.57;;;4.45;;
20344;SDS011;10330;48.816;9.278;2023-06-22T11:59:26;7.72;;;3.80;;
20344;SDS011;10330;48.816;9.278;2023-06-22T12:01:52;9.65;;;4.07;;
20344;SDS011;10330;48.816;9.278;2023-06-22T12:04:18;8.35;;;4.57;;
20344;SDS011;10330;48.816;9.278;2023-06-22T12:06:47;10.10;;;4.57;;
20344;SDS011;10330;48.816;9.278;2023-06-22T12:09:13;19.38;;;4.95;;
20344;SDS011;10330;48.816;9.278;2023-06-22T12:11:40;17.77;;;5.05;;
20344;SDS011;10330;48.816;9.278;2023-06-22T12:14:06;10.52;;;4.75;;
20344;SDS011;10330;48.816;9.278;2023-06-22T12:16:32;12.30;;;4.53;;
20344;SDS011;10330;48.816;9.278;2023-06-22T12:18:58;11.85;;;3.83;;
20344;SDS011;10330;48.816;9.278;2023-06-22T12:21:24;10.10;;;4.78;;
20344;SDS011;10330;48.816;9.278;2023-06-22T12:23:50;12.90;;;5.13;;
20344;SDS011;10330;48.816;9.278;2023-06-22T12:26:16;15.50;;;4.38;;
20344;SDS011;10330;48.816;9.278;2023-06-22T12:28:43;17.13;;;4.63;;
20344;SDS011;10330;48.816;9.278;2023-06-22T12:31:09;18.08;;;4.65;;
20344;SDS011;10330;48.816;9.278;2023-06-22T12:33:35;10.15;;;4.38;;
20344;SDS011;10330;48.816;9.278;2023-06-22T12:36:01;14.52;;;4.90;;
20344;SDS011;10330;48.816;9.278;2023-06-22T12:38:28;9.43;;;4.03;;
20344;SDS011;10330;48.816;9.278;2023-06-22T12:40:54;8.55;;;4.18;;
20344;SDS011;10330;48.816;9.278;2023-06-22T12:43:21;17.25;;;4.85;;
20344;SDS011;10330;48.816;9.278;2023-06-22T12:45:47;10.32;;;4.95;;
20344;SDS011;10330;48.816;9.278;2023-06-22T12:48:13;12.95;;;5.13;;
20344;SDS011;10330;48.816;9.278;2023-06-22T12:50:39;7.93;;;4.60;;
20344;SDS011;10330;48.816;9.278;2023-06-22T12:53:05;15.27;;;5.00;;
20344;SDS011;10330;48.816;9.278;2023-06-22T12:55:31;19.23;;;5.15;;
20344;SDS011;10330;48.816;9.278;2023-06-22T12:57:58;14.40;;;4.72;;
20344;SDS011;10330;48.816;9.278;2023-06-22T13:00:24;17.08;;;4.40;;
20344;SDS011;10330;48.816;9.278;2023-06-22T13:02:50;9.50;;;4.32;;
20344;SDS011;10330;48.816;9.278;2023-06-22T13:05:16;13.73;;;4.90;;
20344;SDS011;10330;48.816;9.278;2023-06-22T13:07:42;12.05;;;4.82;;
20344;SDS011;10330;48.816;9.278;2023-06-22T13:10:08;15.55;;;4.72;;
20344;SDS011;10330;48.816;9.278;2023-06-22T13:12:35;13.65;;;5.25;;
20344;SDS011;10330;48.816;9.278;2023-06-22T13:15:01;8.25;;;4.78;;
20344;SDS011;10330;48.816;9.278;2023-06-22T13:17:28;8.52;;;4.60;;
20344;SDS011;10330;48.816;9.278;2023-06-22T13:19:55;14.13;;;4.07;;
20344;SDS011;10330;48.816;9.278;2023-06-22T13:22:31;16.10;;;4.72;;
20344;SDS011;10330;48.816;9.278;2023-06-22T13:25:09;13.30;;;4.53;;
20344;SDS011;10330;48.816;9.278;2023-06-22T13:27:39;22.90;;;7.35;;
20344;SDS011;10330;48.816;9.278;2023-06-22T13:30:06;16.55;;;6.18;;
20344;SDS011;10330;48.816;9.278;2023-06-22T13:32:34;12.27;;;5.47;;
20344;SDS011;10330;48.816;9.278;2023-06-22T13:35:00;12.27;;;4.43;;
20344;SDS011;10330;48.816;9.278;2023-06-22T13:37:26;13.73;;;4.97;;
20344;SDS011;10330;48.816;9.278;2023-06-22T13:39:52;13.10;;;6.05;;
20344;SDS011;10330;48.816;9.278;2023-06-22T13:42:21;11.27;;;5.60;;
20344;SDS011;10330;48.816;9.278;2023-06-22T13:44:47;20.83;;;5.28;;
20344;SDS011;10330;48.816;9.278;2023-06-22T13:47:13;13.10;;;3.70;;
20344;SDS011;10330;48.816;9.278;2023-06-22T13:49:40;9.70;;;4.47;;
20344;SDS011;10330;48.816;9.278;2023-06-22T13:52:06;22.08;;;10.40;;
20344;SDS011;10330;48.816;9.278;2023-06-22T13:54:36;13.13;;;4.97;;
20344;SDS011;10330;48.816;9.278;2023-06-22T13:57:02;17.23;;;4.80;;
20344;SDS011;10330;48.816;9.278;2023-06-22T13:59:35;12.10;;;5.32;;
20344;SDS011;10330;48.816;9.278;2023-06-22T14:02:01;12.77;;;4.95;;
20344;SDS011;10330;48.816;9.278;2023-06-22T14:04:27;22.20;;;5.00;;
20344;SDS011;10330;48.816;9.278;2023-06-22T14:06:54;13.48;;;4.78;;
20344;SDS011;10330;48.816;9.278;2023-06-22T14:09:21;14.45;;;5.35;;
20344;SDS011;10330;48.816;9.278;2023-06-22T14:11:47;23.38;;;5.90;;
20344;SDS011;10330;48.816;9.278;2023-06-22T14:14:13;13.27;;;4.90;;
20344;SDS011;10330;48.816;9.278;2023-06-22T14:16:39;17.15;;;5.93;;
20344;SDS011;10330;48.816;9.278;2023-06-22T14:19:06;10.43;;;5.28;;
20344;SDS011;10330;48.816;9.278;2023-06-22T14:21:32;12.98;;;5.68;;
20344;SDS011;10330;48.816;9.278;2023-06-22T14:23:58;16.52;;;6.13;;
20344;SDS011;10330;48.816;9.278;2023-06-22T14:26:24;14.70;;;4.78;;
20344;SDS011;10330;48.816;9.278;2023-06-22T14:28:51;19.40;;;7.18;;
20344;SDS011;10330;48.816;9.278;2023-06-22T14:31:18;11.93;;;3.70;;
20344;SDS011;10330;48.816;9.278;2023-06-22T14:33:45;14.57;;;4.70;;
20344;SDS011;10330;48.816;9.278;2023-06-22T14:36:13;13.18;;;3.60;;
20344;SDS011;10330;48.816;9.278;2023-06-22T14:38:40;20.85;;;4.82;;
20344;SDS011;10330;48.816;9.278;2023-06-22T14:41:06;12.77;;;4.15;;
20344;SDS011;10330;48.816;9.278;2023-06-22T14:43:33;12.60;;;4.03;;
20344;SDS011;10330;48.816;9.278;2023-06-22T14:45:59;15.05;;;4.05;;
20344;SDS011;10330;48.816;9.278;2023-06-22T14:48:26;13.10;;;4.25;;
20344;SDS011;10330;48.816;9.278;2023-06-22T14:50:52;14.60;;;4.63;;
20344;SDS011;10330;48.816;9.278;2023-06-22T14:53:19;10.40;;;3.20;;
20344;SDS011;10330;48.816;9.278;2023-06-22T14:55:45;16.85;;;3.20;;
20344;SDS011;10330;48.816;9.278;2023-06-22T14:58:11;12.63;;;3.60;;
20344;SDS011;10330;48.816;9.278;2023-06-22T15:00:38;12.07;;;3.92;;
20344;SDS011;10330;48.816;9.278;2023-06-22T15:03:04;11.52;;;3.42;;
20344;SDS011;10330;48.816;9.278;2023-06-22T15:05:33;10.93;;;3.33;;
20344;SDS011;10330;48.816;9.278;2023-06-22T15:07:59;17.20;;;3.92;;
20344;SDS011;10330;48.816;9.278;2023-06-22T15:10:25;11.70;;;3.22;;
20344;SDS011;10330;48.816;9.278;2023-06-22T15:12:51;7.93;;;3.47;;
20344;SDS011;10330;48.816;9.278;2023-06-22T15:15:17;10.30;;;3.85;;
20344;SDS011;10330;48.816;9.278;2023-06-22T15:17:43;11.77;;;3.45;;
20344;SDS011;10330;48.816;9.278;2023-06-22T15:20:10;11.98;;;3.20;;
20344;SDS011;10330;48.816;9.278;2023-06-22T15:22:36;9.88;;;3.22;;
20344;SDS011;10330;48.816;9.278;2023-06-22T15:25:04;15.13;;;3.40;;
20344;SDS011;10330;48.816;9.278;2023-06-22T15:27:31;11.20;;;2.83;;
20344;SDS011;10330;48.816;9.278;2023-06-22T15:29:57;15.15;;;2.80;;
20344;SDS011;10330;48.816;9.278;2023-06-22T15:32:23;11.60;;;2.92;;
20344;SDS011;10330;48.816;9.278;2023-06-22T15:34:49;17.80;;;3.75;;
20344;SDS011;10330;48.816;9.278;2023-06-22T15:37:16;8.45;;;2.30;;
20344;SDS011;10330;48.816;9.278;2023-06-22T15:39:43;14.35;;;3.30;;
20344;SDS011;10330;48.816;9.278;2023-06-22T15:42:09;9.90;;;2.67;;
20344;SDS011;10330;48.816;9.278;2023-06-22T15:44:35;11.10;;;2.80;;
20344;SDS011;10330;48.816;9.278;2023-06-22T15:47:01;7.45;;;2.72;;
20344;SDS011;10330;48.816;9.278;2023-06-22T15:49:27;10.35;;;2.78;;
20344;SDS011;10330;48.816;9.278;2023-06-22T15:51:53;11.20;;;2.63;;
20344;SDS011;10330;48.816;9.278;2023-06-22T15:54:19;14.00;;;3.33;;
20344;SDS011;10330;48.816;9.278;2023-06-22T15:56:46;15.65;;;3.85;;
20344;SDS011;10330;48.816;9.278;2023-06-22T15:59:12;12.52;;;3.83;;
20344;SDS011;10330;48.816;9.278;2023-06-22T16:01:38;15.70;;;3.17;;
20344;SDS011;10330;48.816;9.278;2023-06-22T16:04:04;13.48;;;3.30;;
20344;SDS011;10330;48.816;9.278;2023-06-22T16:06:32;14.98;;;3.08;;
20344;SDS011;10330;48.816;9.278;2023-06-22T16:08:59;8.38;;;2.50;;
20344;SDS011;10330;48.816;9.278;2023-06-22T16:11:25;12.55;;;3.17;;
20344;SDS011;10330;48.816;9.278;2023-06-22T16:13:51;12.35;;;3.35;;
20344;SDS011;10330;48.816;9.278;2023-06-22T16:16:17;8.65;;;2.35;;
20344;SDS011;10330;48.816;9.278;2023-06-22T16:18:43;10.25;;;2.47;;
20344;SDS011;10330;48.816;9.278;2023-06-22T16:21:11;7.28;;;2.38;;
20344;SDS011;10330;48.816;9.278;2023-06-22T16:23:38;13.15;;;3.20;;
20344;SDS011;10330;48.816;9.278;2023-06-22T16:26:04;9.48;;;2.75;;
20344;SDS011;10330;48.816;9.278;2023-06-22T16:28:30;13.20;;;2.72;;
20344;SDS011;10330;48.816;9.278;2023-06-22T16:30:56;9.82;;;3.55;;
20344;SDS011;10330;48.816;9.278;2023-06-22T16:33:23;8.90;;;2.70;;
20344;SDS011;10330;48.816;9.278;2023-06-22T16:35:50;8.45;;;2.97;;
20344;SDS011;10330;48.816;9.278;2023-06-22T16:38:16;12.73;;;3.17;;
20344;SDS011;10330;48.816;9.278;2023-06-22T16:40:48;12.32;;;3.75;;
20344;SDS011;10330;48.816;9.278;2023-06-22T16:43:17;13.65;;;2.67;;
20344;SDS011;10330;48.816;9.278;2023-06-22T16:45:44;15.43;;;3.28;;
20344;SDS011;10330;48.816;9.278;2023-06-22T16:48:10;9.52;;;3.40;;
20344;SDS011;10330;48.816;9.278;2023-06-22T16:50:36;12.00;;;3.08;;
20344;SDS011;10330;48.816;9.278;2023-06-22T16:53:02;9.02;;;3.25;;
20344;SDS011;10330;48.816;9.278;2023-06-22T16:55:29;12.82;;;2.80;;
20344;SDS011;10330;48.816;9.278;2023-06-22T16:57:56;9.55;;;2.83;;
20344;SDS011;10330;48.816;9.278;2023-06-22T17:00:23;14.98;;;3.25;;
20344;SDS011;10330;48.816;9.278;2023-06-22T17:02:50;9.93;;;2.60;;
20344;SDS011;10330;48.816;9.278;2023-06-22T17:05:18;10.30;;;2.70;;
20344;SDS011;10330;48.816;9.278;2023-06-22T17:07:48;8.00;;;2.53;;
20344;SDS011;10330;48.816;9.278;2023-06-22T17:10:19;8.77;;;3.28;;
20344;SDS011;10330;48.816;9.278;2023-06-22T17:12:47;11.90;;;3.22;;
20344;SDS011;10330;48.816;9.278;2023-06-22T17:15:13;8.82;;;2.53;;
20344;SDS011;10330;48.816;9.278;2023-06-22T17:17:40;9.35;;;2.83;;
20344;SDS011;10330;48.816;9.278;2023-06-22T17:20:09;12.43;;;2.65;;
20344;SDS011;10330;48.816;9.278;2023-06-22T17:22:35;5.43;;;3.05;;
20344;SDS011;10330;48.816;9.278;2023-06-22T17:25:04;10.90;;;3.38;;
20344;SDS011;10330;48.816;9.278;2023-06-22T17:27:38;11.80;;;2.78;;
20344;SDS011;10330;48.816;9.278;2023-06-22T17:30:11;13.82;;;3.05;;
20344;SDS011;10330;48.816;9.278;2023-06-22T18:10:58;14.48;;;2.63;;
20344;SDS011;10330;48.816;9.278;2023-06-22T18:15:07;7.78;;;2.05;;
20344;SDS011;10330;48.816;9.278;2023-06-22T18:18:05;9.55;;;2.20;;
20344;SDS011;10330;48.816;9.278;2023-06-22T18:20:33;6.40;;;2.83;;
20344;SDS011;10330;48.816;9.278;2023-06-22T18:23:01;6.75;;;2.58;;
20344;SDS011;10330;48.816;9.278;2023-06-22T18:25:32;12.25;;;1.98;;
20344;SDS011;10330;48.816;9.278;2023-06-22T18:28:00;11.65;;;2.20;;
20344;SDS011;10330;48.816;9.278;2023-06-22T18:30:27;8.45;;;3.50;;
20344;SDS011;10330;48.816;9.278;2023-06-22T18:32:54;14.25;;;2.55;;
20344;SDS011;10330;48.816;9.278;2023-06-22T18:35:24;5.07;;;2.75;;
20344;SDS011;10330;48.816;9.278;2023-06-22T18:37:51;8.00;;;2.92;;
20344;SDS011;10330;48.816;9.278;2023-06-22T18:40:19;7.43;;;2.10;;
20344;SDS011;10330;48.816;9.278;2023-06-22T18:42:46;3.10;;;2.40;;
20344;SDS011;10330;48.816;9.278;2023-06-22T18:45:25;7.57;;;2.45;;
20344;SDS011;10330;48.816;9.278;2023-06-22T18:50:36;8.05;;;2.55;;
20344;SDS011;10330;48.816;9.278;2023-06-22T18:53:25;4.45;;;2.10;;
20344;SDS011;10330;48.816;9.278;2023-06-22T18:56:09;4.97;;;2.40;;
20344;SDS011;10330;48.816;9.278;2023-06-22T18:58:37;3.63;;;1.90;;
20344;SDS011;10330;48.816;9.278;2023-06-22T19:01:24;4.40;;;2.28;;
20344;SDS011;10330;48.816;9.278;2023-06-22T19:03:50;3.53;;;2.25;;
20344;SDS011;10330;48.816;9.278;2023-06-22T19:09:18;8.63;;;3.00;;
20344;SDS011;10330;48.816;9.278;2023-06-22T19:11:45;10.82;;;2.53;;
20344;SDS011;10330;48.816;9.278;2023-06-22T19:14:32;5.95;;;2.03;;
20344;SDS011;10330;48.816;9.278;2023-06-22T19:16:59;8.10;;;3.80;;
20344;SDS011;10330;48.816;9.278;2023-06-22T19:19:25;9.48;;;3.17;;
20344;SDS011;10330;48.816;9.278;2023-06-22T19:21:58;13.00;;;3.05;;
20344;SDS011;10330;48.816;9.278;2023-06-22T19:24:28;8.52;;;2.13;;
20344;SDS011;10330;48.816;9.278;2023-06-22T19:26:56;9.27;;;3.08;;
20344;SDS011;10330;48.816;9.278;2023-06-22T19:29:23;9.07;;;2.42;;
20344;SDS011;10330;48.816;9.278;2023-06-22T19:31:49;6.45;;;2.17;;
20344;SDS011;10330;48.816;9.278;2023-06-22T19:34:16;14.70;;;2.60;;
20344;SDS011;10330;48.816;9.278;2023-06-22T19:36:42;9.80;;;2.40;;
20344;SDS011;10330;48.816;9.278;2023-06-22T19:39:10;5.00;;;2.00;;
20344;SDS011;10330;48.816;9.278;2023-06-22T19:41:39;5.28;;;2.05;;
20344;SDS011;10330;48.816;9.278;2023-06-22T19:44:08;6.13;;;2.10;;
20344;SDS011;10330;48.816;9.278;2023-06-22T19:46:35;9.77;;;2.50;;
20344;SDS011;10330;48.816;9.278;2023-06-22T19:49:01;3.72;;;2.17;;
20344;SDS011;10330;48.816;9.278;2023-06-22T19:51:33;8.68;;;2.30;;
20344;SDS011;10330;48.816;9.278;2023-06-22T19:54:07;8.65;;;3.00;;
20344;SDS011;10330;48.816;9.278;2023-06-22T19:56:37;5.97;;;2.60;;
20344;SDS011;10330;48.816;9.278;2023-06-22T19:59:14;11.68;;;3.03;;
20344;SDS011;10330;48.816;9.278;2023-06-22T20:01:50;7.32;;;2.72;;
20344;SDS011;10330;48.816;9.278;2023-06-22T20:04:16;8.23;;;2.05;;
20344;SDS011;10330;48.816;9.278;2023-06-22T20:07:01;4.85;;;2.78;;
20344;SDS011;10330;48.816;9.278;2023-06-22T20:09:28;7.25;;;2.88;;
20344;SDS011;10330;48.816;9.278;2023-06-22T20:11:57;11.60;;;2.75;;
20344;SDS011;10330;48.816;9.278;2023-06-22T20:14:29;10.45;;;2.47;;
20344;SDS011;10330;48.816;9.278;2023-06-22T20:17:03;13.70;;;3.78;;
20344;SDS011;10330;48.816;9.278;2023-06-22T20:19:34;3.30;;;2.70;;
20344;SDS011;10330;48.816;9.278;2023-06-22T20:22:05;3.58;;;2.42;;
20344;SDS011;10330;48.816;9.278;2023-06-22T20:24:32;4.53;;;2.78;;
20344;SDS011;10330;48.816;9.278;2023-06-22T20:27:02;12.00;;;3.17;;
20344;SDS011;10330;48.816;9.278;2023-06-22T20:29:57;5.00;;;2.65;;
20344;SDS011;10330;48.816;9.278;2023-06-22T20:35:34;3.40;;;2.72;;
20344;SDS011;10330;48.816;9.278;2023-06-22T20:38:08;9.20;;;3.30;;
20344;SDS011;10330;48.816;9.278;2023-06-22T20:40:38;3.08;;;2.67;;
20344;SDS011;10330;48.816;9.278;2023-06-22T20:43:04;7.10;;;3.13;;
20344;SDS011;10330;48.816;9.278;2023-06-22T20:45:34;6.25;;;2.30;;
20344;SDS011;10330;48.816;9.278;2023-06-22T20:48:00;9.65;;;3.28;;
20344;SDS011;10330;48.816;9.278;2023-06-22T20:50:30;12.10;;;2.78;;
20344;SDS011;10330;48.816;9.278;2023-06-22T20:53:00;5.85;;;3.15;;
20344;SDS011;10330;48.816;9.278;2023-06-22T20:55:27;7.43;;;2.80;;
20344;SDS011;10330;48.816;9.278;2023-06-22T20:57:54;6.88;;;2.97;;
20344;SDS011;10330;48.816;9.278;2023-06-22T21:08:05;3.75;;;2.30;;
20344;SDS011;10330;48.816;9.278;2023-06-22T21:11:10;6.13;;;2.80;;
20344;SDS011;10330;48.816;9.278;2023-06-22T21:14:01;2.35;;;1.90;;
20344;SDS011;10330;48.816;9.278;2023-06-22T21:23:28;4.43;;;1.50;;
20344;SDS011;10330;48.816;9.278;2023-06-22T21:26:15;3.90;;;1.52;;
20344;SDS011;10330;48.816;9.278;2023-06-22T21:33:11;0.93;;;0.93;;
20344;SDS011;10330;48.816;9.278;2023-06-22T21:36:36;1.85;;;0.95;;
20344;SDS011;10330;48.816;9.278;2023-06-22T21:40:23;0.75;;;0.70;;
20344;SDS011;10330;48.816;9.278;2023-06-22T21:42:50;3.03;;;0.77;;
20344;SDS011;10330;48.816;9.278;2023-06-22T21:45:16;0.80;;;0.70;;
20344;SDS011;10330;48.816;9.278;2023-06-22T21:47:42;1.13;;;0.55;;
20344;SDS011;10330;48.816;9.278;2023-06-22T21:50:09;0.50;;;0.50;;
20344;SDS011;10330;48.816;9.278;2023-06-22T21:52:35;3.30;;;0.60;;
20344;SDS011;10330;48.816;9.278;2023-06-22T21:55:01;0.40;;;0.40;;
20344;SDS011;10330;48.816;9.278;2023-06-22T21:57:29;2.28;;;0.40;;
20344;SDS011;10330;48.816;9.278;2023-06-22T21:59:55;0.52;;;0.40;;
20344;SDS011;10330;48.816;9.278;2023-06-22T22:02:22;2.17;;;0.40;;
20344;SDS011;10330;48.816;9.278;2023-06-22T22:04:51;0.93;;;0.60;;
20344;SDS011;10330;48.816;9.278;2023-06-22T22:07:18;1.48;;;0.70;;
20344;SDS011;10330;48.816;9.278;2023-06-22T22:09:45;2.08;;;0.50;;
20344;SDS011;10330;48.816;9.278;2023-06-22T22:12:11;0.50;;;0.50;;
20344;SDS011;10330;48.816;9.278;2023-06-22T22:14:38;2.50;;;1.00;;
20344;SDS011;10330;48.816;9.278;2023-06-22T22:17:10;0.70;;;0.70;;
20344;SDS011;10330;48.816;9.278;2023-06-22T22:25:42;0.90;;;0.90;;
20344;SDS011;10330;48.816;9.278;2023-06-22T22:28:18;1.55;;;1.05;;
20344;SDS011;10330;48.816;9.278;2023-06-22T22:30:48;2.50;;;0.95;;
20344;SDS011;10330;48.816;9.278;2023-06-22T22:33:26;0.63;;;0.63;;
20344;SDS011;10330;48.816;9.278;2023-06-22T22:35:55;4.50;;;1.00;;
20344;SDS011;10330;48.816;9.278;2023-06-22T22:38:31;3.47;;;0.63;;
20344;SDS011;10330;48.816;9.278;2023-06-22T22:41:04;1.13;;;1.02;;
20344;SDS011;10330;48.816;9.278;2023-06-22T22:43:30;0.90;;;0.90;;
20344;SDS011;10330;48.816;9.278;2023-06-22T22:45:58;1.10;;;1.10;;
20344;SDS011;10330;48.816;9.278;2023-06-22T22:48:24;1.02;;;1.02;;
20344;SDS011;10330;48.816;9.278;2023-06-22T22:51:00;1.63;;;1.10;;
20344;SDS011;10330;48.816;9.278;2023-06-22T22:53:31;0.93;;;0.93;;
20344;SDS011;10330;48.816;9.278;2023-06-22T23:00:09;1.00;;;1.00;;
20344;SDS011;10330;48.816;9.278;2023-06-22T23:02:38;1.40;;;1.30;;
20344;SDS011;10330;48.816;9.278;2023-06-22T23:05:05;1.08;;;1.08;;
20344;SDS011;10330;48.816;9.278;2023-06-22T23:07:31;1.17;;;1.08;;
20344;SDS011;10330;48.816;9.278;2023-06-22T23:10:01;0.90;;;0.90;;
20344;SDS011;10330;48.816;9.278;2023-06-22T23:12:29;1.00;;;1.00;;
20344;SDS011;10330;48.816;9.278;2023-06-22T23:15:01;1.30;;;1.30;;